createdAt,value
2023-03-11T00:02:01.536Z,61.58
2023-03-11T00:05:06.300Z,62.34
2023-03-11T00:08:13.550Z,62.29
2023-03-11T00:11:16.310Z,62.52
2023-03-11T00:14:19.002Z,62.26
2023-03-11T00:17:21.783Z,63.42
2023-03-11T00:20:29.180Z,63.45
2023-03-11T00:23:32.646Z,64.81
2023-03-11T00:26:35.388Z,63.87
2023-03-11T00:29:38.063Z,64.65
2023-03-11T00:32:40.924Z,64.80
2023-03-11T00:35:45.931Z,63.81
2023-03-11T00:38:48.887Z,64.81
2023-03-11T00:41:51.809Z,64.63
2023-03-11T00:44:54.519Z,64.54
2023-03-11T00:47:57.948Z,65.67
2023-03-11T00:51:02.117Z,65.85
2023-03-11T00:54:04.983Z,65.89
2023-03-11T00:57:07.794Z,66.09
2023-03-11T01:00:15.280Z,66.36
2023-03-11T01:03:18.106Z,66.47
2023-03-11T01:06:23.419Z,66.25
2023-03-11T01:09:26.354Z,66.04
2023-03-11T01:12:29.235Z,67.03
2023-03-11T01:15:34.622Z,68.25
2023-03-11T01:18:37.685Z,67.74
2023-03-11T01:21:43.019Z,68.18
2023-03-11T01:24:45.986Z,67.55
2023-03-11T01:27:48.872Z,67.67
2023-03-11T01:30:51.641Z,67.16
2023-03-11T01:33:54.401Z,67.01
2023-03-11T01:36:58.617Z,66.75
2023-03-11T01:40:01.353Z,66.20
2023-03-11T01:43:05.548Z,67.25
2023-03-11T01:46:14.356Z,67.00
2023-03-11T01:49:17.114Z,67.21
2023-03-11T01:52:21.462Z,66.60
2023-03-11T01:55:24.468Z,66.57
2023-03-11T01:58:31.986Z,65.96
2023-03-11T02:01:37.048Z,67.42
2023-03-11T02:04:42.119Z,67.77
2023-03-11T02:07:46.476Z,66.38
2023-03-11T02:10:50.870Z,65.60
2023-03-11T02:13:57.832Z,64.14
2023-03-11T02:17:01.723Z,65.24
2023-03-11T02:20:19.382Z,64.90
2023-03-11T02:23:31.128Z,64.63
2023-03-11T02:26:39.865Z,65.51
2023-03-11T02:29:46.894Z,65.34
2023-03-11T02:32:50.605Z,65.66
2023-03-11T02:35:53.679Z,65.83
2023-03-11T02:38:56.483Z,66.61
2023-03-11T02:42:00.298Z,65.47
2023-03-11T02:45:10.436Z,65.48
2023-03-11T02:48:13.702Z,65.96
2023-03-11T02:51:16.474Z,65.60
2023-03-11T02:54:19.244Z,65.09
2023-03-11T02:57:22.212Z,65.86
2023-03-11T03:00:26.741Z,66.78
2023-03-11T03:03:29.407Z,64.84
2023-03-11T03:06:32.129Z,64.02
2023-03-11T03:09:36.233Z,63.87
2023-03-11T03:12:38.953Z,63.77
2023-03-11T03:15:43.278Z,63.15
2023-03-11T03:18:46.604Z,63.53
2023-03-11T03:21:49.551Z,63.74
2023-03-11T03:24:52.844Z,64.75
2023-03-11T03:27:55.555Z,64.05
2023-03-11T03:31:04.906Z,62.99
2023-03-11T03:34:07.656Z,63.87
2023-03-11T03:37:10.547Z,63.33
2023-03-11T03:40:14.638Z,63.77
2023-03-11T03:43:17.583Z,63.84
2023-03-11T03:46:23.380Z,64.51
2023-03-11T03:49:26.193Z,64.90
2023-03-11T03:52:28.965Z,64.79
2023-03-11T03:55:31.735Z,65.03
2023-03-11T03:58:35.261Z,65.26
2023-03-11T04:01:39.346Z,65.27
2023-03-11T04:04:42.182Z,65.04
2023-03-11T04:07:44.889Z,65.48
2023-03-11T04:10:58.055Z,65.60
2023-03-11T04:14:02.467Z,65.42
2023-03-11T04:17:07.181Z,66.58
2023-03-11T04:20:11.520Z,65.78
2023-03-11T04:23:14.402Z,65.64
2023-03-11T04:26:17.512Z,65.42
2023-03-11T04:29:20.269Z,65.53
2023-03-11T04:32:24.332Z,65.83
2023-03-11T04:35:27.188Z,66.96
2023-03-11T04:38:30.966Z,67.63
2023-03-11T04:41:33.840Z,67.66
2023-03-11T04:44:36.867Z,67.66
2023-03-11T04:47:41.050Z,67.16
2023-03-11T04:50:43.858Z,67.33
2023-03-11T04:53:46.602Z,67.50
2023-03-11T04:56:49.281Z,68.06
2023-03-11T04:59:52.001Z,68.27
2023-03-11T05:02:56.204Z,67.94
2023-03-11T05:06:00.298Z,68.42
2023-03-11T05:09:03.184Z,68.32
2023-03-11T05:12:06.966Z,68.54
2023-03-11T05:15:10.222Z,68.00
2023-03-11T05:18:14.414Z,67.79
2023-03-11T05:21:17.108Z,67.83
2023-03-11T05:24:19.825Z,67.45
2023-03-11T05:27:22.648Z,67.30
2023-03-11T05:30:25.660Z,67.46
2023-03-11T05:33:32.264Z,67.76
2023-03-11T05:36:35.358Z,67.43
2023-03-11T05:39:38.260Z,67.71
2023-03-11T05:42:42.150Z,67.56
2023-03-11T05:45:44.905Z,66.86
2023-03-11T05:48:49.032Z,66.45
2023-03-11T05:51:53.497Z,66.59
2023-03-11T05:54:56.278Z,66.06
2023-03-11T05:57:59.148Z,65.88
2023-03-11T06:01:01.816Z,65.80
2023-03-11T06:04:06.470Z,65.45
2023-03-11T06:07:09.424Z,65.15
2023-03-11T06:10:13.200Z,66.06
2023-03-11T06:13:16.119Z,66.40
2023-03-11T06:16:19.358Z,66.50
2023-03-11T06:19:23.439Z,66.54
2023-03-11T06:22:26.177Z,67.09
2023-03-11T06:25:28.851Z,67.07
2023-03-11T06:28:32.149Z,65.58
2023-03-11T06:31:34.967Z,63.93
2023-03-11T06:34:39.149Z,61.46
2023-03-11T06:37:41.919Z,58.31
2023-03-11T06:40:45.060Z,55.12
2023-03-11T06:43:47.986Z,53.18
2023-03-11T06:46:51.377Z,51.05
2023-03-11T06:49:55.631Z,49.28
2023-03-11T06:52:58.453Z,47.71
2023-03-11T06:56:02.588Z,46.51
2023-03-11T06:59:06.391Z,44.13
2023-03-11T07:02:14.462Z,44.33
2023-03-11T07:05:18.990Z,44.12
2023-03-11T07:08:21.874Z,44.61
2023-03-11T07:11:28.117Z,43.44
2023-03-11T07:14:33.285Z,42.39
2023-03-11T07:17:45.474Z,41.58
2023-03-11T07:20:57.599Z,41.73
2023-03-11T07:24:02.703Z,40.97
2023-03-11T07:27:05.960Z,41.25
2023-03-11T07:30:10.248Z,44.13
2023-03-11T07:33:13.284Z,45.27
2023-03-11T07:36:20.010Z,47.19
2023-03-11T07:39:22.957Z,49.24
2023-03-11T07:42:25.976Z,50.68
2023-03-11T07:45:32.024Z,50.61
2023-03-11T07:48:36.095Z,51.80
2023-03-11T07:51:43.810Z,52.78
2023-03-11T07:54:47.255Z,53.18
2023-03-11T07:57:51.691Z,54.30
2023-03-11T08:00:56.982Z,55.12
2023-03-11T08:03:59.870Z,55.44
2023-03-11T08:07:04.253Z,55.40
2023-03-11T08:10:07.991Z,56.19
2023-03-11T08:13:10.693Z,54.80
2023-03-11T08:16:17.097Z,53.80
2023-03-11T08:19:20.133Z,55.53
2023-03-11T08:22:24.471Z,55.43
2023-03-11T08:25:27.728Z,57.43
2023-03-11T08:28:30.585Z,55.30
2023-03-11T08:31:35.055Z,55.55
2023-03-11T08:34:39.552Z,56.34
2023-03-11T08:37:43.886Z,55.25
2023-03-11T08:40:46.697Z,55.52
2023-03-11T08:43:52.089Z,56.83
2023-03-11T08:46:55.029Z,57.17
2023-03-11T08:49:57.791Z,56.52
2023-03-11T08:53:03.199Z,56.31
2023-03-11T08:56:06.658Z,56.74
2023-03-11T08:59:09.572Z,55.73
2023-03-11T09:02:12.577Z,56.11
2023-03-11T09:05:15.904Z,55.76
2023-03-11T09:08:20.121Z,55.28
2023-03-11T09:11:23.047Z,54.78
2023-03-11T09:14:26.137Z,55.99
2023-03-11T09:17:28.950Z,55.89
2023-03-11T09:20:31.708Z,53.74
2023-03-11T09:23:35.989Z,54.17
2023-03-11T09:26:38.728Z,53.90
2023-03-11T09:29:41.498Z,50.52
2023-03-11T09:32:44.177Z,50.50
2023-03-11T09:35:46.911Z,51.24
2023-03-11T09:38:51.047Z,49.28
2023-03-11T09:41:58.850Z,48.30
2023-03-11T09:45:05.675Z,47.47
2023-03-11T09:48:20.484Z,49.23
2023-03-11T09:51:30.616Z,47.05
2023-03-11T09:54:40.010Z,47.92
2023-03-11T09:57:42.918Z,44.86
2023-03-11T10:00:46.566Z,44.96
2023-03-11T10:03:50.888Z,46.16
2023-03-11T10:06:54.746Z,48.54
2023-03-11T10:10:02.278Z,48.19
2023-03-11T10:13:13.080Z,46.58
2023-03-11T10:16:25.506Z,45.34
2023-03-11T10:19:42.959Z,45.85
2023-03-11T10:22:54.025Z,44.98
2023-03-11T10:26:04.478Z,46.28
2023-03-11T10:29:17.083Z,46.51
2023-03-11T10:32:25.436Z,48.01
2023-03-11T10:35:37.585Z,48.25
2023-03-11T10:38:43.656Z,49.80
2023-03-11T10:41:53.723Z,47.04
2023-03-11T10:44:56.512Z,44.77
2023-03-11T10:47:59.377Z,44.03
2023-03-11T10:51:05.113Z,42.59
2023-03-11T10:54:08.076Z,40.20
2023-03-11T10:57:25.527Z,40.16
2023-03-11T11:00:32.059Z,40.62
2023-03-11T11:03:35.696Z,44.38
2023-03-11T11:06:38.945Z,42.59
2023-03-11T11:09:41.860Z,43.63
2023-03-11T11:12:57.800Z,43.54
2023-03-11T11:16:03.127Z,41.10
2023-03-11T11:19:10.535Z,41.14
2023-03-11T11:22:18.410Z,41.59
2023-03-11T11:25:33.769Z,41.80
2023-03-11T11:28:38.318Z,41.94
2023-03-11T11:31:42.757Z,38.17
2023-03-11T11:34:56.107Z,39.67
2023-03-11T11:38:04.205Z,40.57
2023-03-11T11:41:08.635Z,39.87
2023-03-11T11:44:20.504Z,40.24
2023-03-11T11:47:26.406Z,40.35
2023-03-11T11:50:34.600Z,40.33
2023-03-11T11:53:43.416Z,37.92
2023-03-11T11:56:47.034Z,37.22
2023-03-11T11:59:51.981Z,37.50
2023-03-11T12:03:16.836Z,37.97
2023-03-11T12:06:28.868Z,36.75
2023-03-11T12:09:37.958Z,37.44
2023-03-11T12:12:50.288Z,37.85
2023-03-11T12:16:02.235Z,39.13
2023-03-11T12:19:16.407Z,37.78
2023-03-11T12:22:43.846Z,37.34
2023-03-11T12:26:07.101Z,37.75
2023-03-11T12:29:26.177Z,36.28
2023-03-11T12:32:35.736Z,33.93
2023-03-11T12:35:38.796Z,35.19
2023-03-11T12:38:47.181Z,37.38
2023-03-11T12:42:06.012Z,35.85
2023-03-11T12:45:49.014Z,34.04
2023-03-11T12:49:12.331Z,35.01
2023-03-11T12:52:22.250Z,34.66
2023-03-11T12:55:34.744Z,33.32
2023-03-11T12:58:58.701Z,35.98
2023-03-11T13:02:17.955Z,35.45
2023-03-11T13:05:27.067Z,33.56
2023-03-11T13:08:38.545Z,35.86
2023-03-11T13:11:45.857Z,35.57
2023-03-11T13:14:49.010Z,36.11
2023-03-11T13:18:00.339Z,35.52
2023-03-11T13:21:05.925Z,35.61
2023-03-11T13:24:43.137Z,36.33
2023-03-11T13:27:50.350Z,35.46
2023-03-11T13:31:00.160Z,35.87
2023-03-11T13:34:12.412Z,35.99
2023-03-11T13:37:32.412Z,34.19
2023-03-11T13:40:39.469Z,36.49
2023-03-11T13:43:46.870Z,37.19
2023-03-11T13:46:52.306Z,35.04
2023-03-11T13:50:02.657Z,35.92
2023-03-11T13:53:11.950Z,36.07
2023-03-11T13:56:19.292Z,36.26
2023-03-11T13:59:26.008Z,35.12
2023-03-11T14:02:28.935Z,35.27
2023-03-11T14:05:33.163Z,36.09
2023-03-11T14:08:38.541Z,36.47
2023-03-11T14:11:47.676Z,36.61
2023-03-11T14:14:56.115Z,35.38
2023-03-11T14:18:26.472Z,38.13
2023-03-11T14:21:30.296Z,36.06
2023-03-11T14:24:35.695Z,36.77
2023-03-11T14:27:39.660Z,36.66
2023-03-11T14:30:42.575Z,35.31
2023-03-11T14:33:55.025Z,36.29
2023-03-11T14:36:59.690Z,36.74
2023-03-11T14:40:04.987Z,36.52
2023-03-11T14:43:09.785Z,38.08
2023-03-11T14:46:20.489Z,38.82
2023-03-11T14:49:25.181Z,38.74
2023-03-11T14:52:37.256Z,38.71
2023-03-11T14:55:46.468Z,39.37
2023-03-11T14:59:06.975Z,37.91
2023-03-11T15:02:31.896Z,38.43
2023-03-11T15:05:39.699Z,39.10
2023-03-11T15:08:46.119Z,38.83
2023-03-11T15:11:52.128Z,39.83
2023-03-11T15:14:55.042Z,40.23
2023-03-11T15:18:00.169Z,39.78
2023-03-11T15:21:07.192Z,40.99
2023-03-11T15:24:21.515Z,39.55
2023-03-11T15:27:36.714Z,40.61
2023-03-11T15:30:39.712Z,39.87
2023-03-11T15:33:42.620Z,41.49
2023-03-11T15:36:55.677Z,41.47
2023-03-11T15:40:11.581Z,41.68
2023-03-11T15:43:24.035Z,40.98
2023-03-11T15:46:28.271Z,41.45
2023-03-11T15:49:31.429Z,41.11
2023-03-11T15:52:34.269Z,41.57
2023-03-11T15:55:39.657Z,42.53
2023-03-11T15:58:43.903Z,42.42
2023-03-11T16:01:47.357Z,42.47
2023-03-11T16:04:50.321Z,43.50
2023-03-11T16:07:53.251Z,43.33
2023-03-11T16:10:56.127Z,43.94
2023-03-11T16:14:00.734Z,43.47
2023-03-11T16:17:03.535Z,43.55
2023-03-11T16:20:07.371Z,42.87
2023-03-11T16:23:17.679Z,43.79
2023-03-11T16:26:21.085Z,44.15
2023-03-11T16:29:27.020Z,43.26
2023-03-11T16:32:29.966Z,43.88
2023-03-11T16:35:33.150Z,44.24
2023-03-11T16:38:45.587Z,44.01
2023-03-11T16:41:48.494Z,44.73
2023-03-11T16:44:52.810Z,44.42
2023-03-11T16:47:55.903Z,44.96
2023-03-11T16:50:58.929Z,45.52
2023-03-11T16:54:02.306Z,44.53
2023-03-11T16:57:05.347Z,44.49
2023-03-11T17:00:12.396Z,44.37
2023-03-11T17:03:18.225Z,44.56
2023-03-11T17:06:23.834Z,45.36
2023-03-11T17:09:26.743Z,44.86
2023-03-11T17:12:29.661Z,46.15
2023-03-11T17:15:35.203Z,45.78
2023-03-11T17:18:38.055Z,45.68
2023-03-11T17:21:40.928Z,47.10
2023-03-11T17:24:43.814Z,48.91
2023-03-11T17:27:46.737Z,47.88
2023-03-11T17:30:50.970Z,46.27
2023-03-11T17:33:53.837Z,47.27
2023-03-11T17:36:57.683Z,49.28
2023-03-11T17:40:00.385Z,49.02
2023-03-11T17:43:03.170Z,51.49
2023-03-11T17:46:10.968Z,51.13
2023-03-11T17:49:15.805Z,52.56
2023-03-11T17:52:18.827Z,52.78
2023-03-11T17:55:21.607Z,52.69
2023-03-11T17:58:25.044Z,53.55
2023-03-11T18:01:29.990Z,54.20
2023-03-11T18:04:32.779Z,54.55
2023-03-11T18:07:38.978Z,55.22
2023-03-11T18:10:41.861Z,54.76
2023-03-11T18:13:44.766Z,55.28
2023-03-11T18:16:49.045Z,56.73
2023-03-11T18:19:51.927Z,57.62
2023-03-11T18:22:55.936Z,57.38
2023-03-11T18:25:58.729Z,58.67
2023-03-11T18:29:04.045Z,58.38
2023-03-11T18:32:08.514Z,57.94
2023-03-11T18:35:14.016Z,57.73
2023-03-11T18:38:17.136Z,57.91
2023-03-11T18:41:21.663Z,57.24
2023-03-11T18:44:24.541Z,56.64
2023-03-11T18:47:28.721Z,56.62
2023-03-11T18:50:31.636Z,55.72
2023-03-11T18:53:34.484Z,55.15
2023-03-11T18:56:37.298Z,56.09
2023-03-11T18:59:40.066Z,55.83
2023-03-11T19:02:44.374Z,56.07
2023-03-11T19:05:50.632Z,55.90
2023-03-11T19:08:54.278Z,56.52
2023-03-11T19:11:57.120Z,56.06
2023-03-11T19:14:59.937Z,56.96
2023-03-11T19:18:06.996Z,56.07
2023-03-11T19:21:12.496Z,56.06
2023-03-11T19:24:15.326Z,57.14
2023-03-11T19:27:18.111Z,57.52
2023-03-11T19:30:21.419Z,57.49
2023-03-11T19:33:26.551Z,57.23
2023-03-11T19:36:32.835Z,56.93
2023-03-11T19:39:53.171Z,57.18
2023-03-11T19:43:00.415Z,57.98
2023-03-11T19:46:14.116Z,58.28
2023-03-11T19:49:27.864Z,57.91
2023-03-11T19:52:30.688Z,57.70
2023-03-11T19:55:33.532Z,57.75
2023-03-11T19:58:36.881Z,57.30
2023-03-11T20:01:39.802Z,58.38
2023-03-11T20:04:44.088Z,58.09
2023-03-11T20:07:46.862Z,59.07
2023-03-11T20:10:52.040Z,57.96
2023-03-11T20:13:54.774Z,58.41
2023-03-11T20:16:57.468Z,58.59
2023-03-11T20:20:01.678Z,58.13
2023-03-11T20:23:04.473Z,58.51
2023-03-11T20:26:08.295Z,58.66
2023-03-11T20:29:11.187Z,59.17
2023-03-11T20:32:13.989Z,60.05
2023-03-11T20:35:18.770Z,59.71
2023-03-11T20:38:22.033Z,60.31
2023-03-11T20:41:26.495Z,60.11
2023-03-11T20:44:29.854Z,59.76
2023-03-11T20:47:33.174Z,59.69
2023-03-11T20:50:37.597Z,60.61
2023-03-11T20:53:40.861Z,60.67
2023-03-11T20:56:43.909Z,61.45
2023-03-11T20:59:46.869Z,60.98
2023-03-11T21:02:49.852Z,60.97
2023-03-11T21:05:54.574Z,61.15
2023-03-11T21:08:58.645Z,60.85
2023-03-11T21:12:01.733Z,61.33
2023-03-11T21:15:06.112Z,61.46
2023-03-11T21:18:09.019Z,61.38
2023-03-11T21:21:14.750Z,61.85
2023-03-11T21:24:17.608Z,62.10
2023-03-11T21:27:26.292Z,62.03
2023-03-11T21:30:29.404Z,61.78
2023-03-11T21:33:32.567Z,61.97
2023-03-11T21:36:37.949Z,62.14
2023-03-11T21:39:41.408Z,62.18
2023-03-11T21:42:44.297Z,62.04
2023-03-11T21:45:47.891Z,62.89
2023-03-11T21:48:50.909Z,62.65
2023-03-11T21:51:55.335Z,62.69
2023-03-11T21:54:58.514Z,63.00
2023-03-11T21:58:01.410Z,62.85
2023-03-11T22:01:04.576Z,63.05
2023-03-11T22:04:07.661Z,62.61
2023-03-11T22:07:12.235Z,62.88
2023-03-11T22:10:15.766Z,62.96
2023-03-11T22:13:19.017Z,62.81
2023-03-11T22:16:23.442Z,63.13
2023-03-11T22:19:26.653Z,62.98
2023-03-11T22:22:30.897Z,62.87
2023-03-11T22:25:33.843Z,63.33
2023-03-11T22:28:36.967Z,63.09
2023-03-11T22:31:39.751Z,63.47
2023-03-11T22:34:42.831Z,63.38
2023-03-11T22:37:47.040Z,63.46
2023-03-11T22:40:50.013Z,63.08
2023-03-11T22:43:52.871Z,63.25
2023-03-11T22:46:55.691Z,63.35
2023-03-11T22:49:58.652Z,63.20
2023-03-11T22:53:02.825Z,62.86
2023-03-11T22:56:09.915Z,62.83
2023-03-11T22:59:12.761Z,63.49
2023-03-11T23:02:15.641Z,63.91
2023-03-11T23:05:18.790Z,63.87
2023-03-11T23:08:22.951Z,63.71
2023-03-11T23:11:25.784Z,63.45
2023-03-11T23:14:43.706Z,63.65
2023-03-11T23:17:47.168Z,63.60
2023-03-11T23:20:50.082Z,64.25
2023-03-11T23:23:55.250Z,64.25
2023-03-11T23:26:58.043Z,63.79
2023-03-11T23:30:00.957Z,63.65
2023-03-11T23:33:03.862Z,63.59
2023-03-11T23:36:10.149Z,64.15
2023-03-11T23:39:14.508Z,64.17
2023-03-11T23:42:25.425Z,64.05
2023-03-11T23:45:29.125Z,64.25
2023-03-11T23:48:31.880Z,64.42
2023-03-11T23:51:34.608Z,64.70
2023-03-11T23:54:38.910Z,64.86
2023-03-11T23:57:41.820Z,64.99
